Time;durP1;ratioP1;P1;durP2;ratioP2;P2;SDS_P1;SDS_P2;PMS_P1;PMS_P2;Temp;Humidity;BMP_temperature;BMP_pressure;BME280_temperature;BME280_humidity;BME280_pressure;Samples;Min_cycle;Max_cycle;Signal;HPM_P1;HPM_P2
2022/05/22 00:01:06;;;;;;;7.97;4.55;;;15.60;99.90;;;;;;5135288;27;20530;-47
2022/05/22 00:03:31;;;;;;;8.93;4.90;;;15.60;99.90;;;;;;5135193;27;20210;-50
2022/05/22 00:05:57;;;;;;;9.60;4.80;;;15.50;99.90;;;;;;5135212;27;20216;-50
2022/05/22 00:08:23;;;;;;;9.65;5.30;;;15.60;99.90;;;;;;5135703;27;20171;-50
2022/05/22 00:10:48;;;;;;;11.05;5.15;;;15.60;99.90;;;;;;5135236;27;20762;-50
2022/05/22 00:13:14;;;;;;;10.35;4.88;;;15.50;99.90;;;;;;5135206;27;20248;-50
2022/05/22 00:16:36;;;;;;;8.80;4.82;;;15.50;99.90;;;;;;5135210;27;20168;-50
2022/05/22 00:18:25;;;;;;;8.18;4.55;;;15.50;99.90;;;;;;5134950;27;20176;-50
2022/05/22 00:20:51;;;;;;;10.88;5.10;;;15.40;99.90;;;;;;5116974;27;20172;-48
2022/05/22 00:23:16;;;;;;;8.23;5.28;;;15.40;99.90;;;;;;5135277;27;20240;-50
2022/05/22 00:25:41;;;;;;;9.30;4.82;;;15.40;99.90;;;;;;5134856;27;20203;-50
2022/05/22 00:28:07;;;;;;;5.80;4.93;;;15.30;99.90;;;;;;5134971;27;20160;-49
2022/05/22 00:30:32;;;;;;;12.13;6.43;;;15.20;99.90;;;;;;5134878;27;20646;-50
2022/05/22 00:33:00;;;;;;;19.42;8.40;;;15.30;99.90;;;;;;5134778;27;20200;-50
2022/05/22 00:35:26;;;;;;;13.93;8.00;;;15.30;99.90;;;;;;5135026;27;20535;-49
2022/05/22 00:37:51;;;;;;;8.93;5.50;;;15.40;99.90;;;;;;5116609;27;20160;-50
2022/05/22 00:40:17;;;;;;;6.25;4.65;;;15.30;99.90;;;;;;5134617;27;20175;-48
2022/05/22 00:42:45;;;;;;;10.13;4.53;;;15.30;99.90;;;;;;5116248;27;20168;-49
2022/05/22 00:45:11;;;;;;;9.60;4.45;;;15.30;99.90;;;;;;5134489;27;20192;-47
2022/05/22 00:47:36;;;;;;;6.60;4.30;;;15.30;99.90;;;;;;5134527;27;20530;-48
2022/05/22 00:50:04;;;;;;;5.35;4.20;;;15.30;99.90;;;;;;5134318;27;20623;-46
2022/05/22 00:52:32;;;;;;;5.57;4.35;;;15.30;99.90;;;;;;5134380;27;20170;-49
2022/05/22 00:55:17;;;;;;;7.20;4.70;;;15.20;99.90;;;;;;5134404;27;20251;-49
2022/05/22 00:57:48;;;;;;;8.77;4.80;;;15.00;99.90;;;;;;5134355;27;20203;-48
2022/05/22 01:00:20;;;;;;;13.10;5.68;;;14.90;99.90;;;;;;5134291;27;20163;-50
2022/05/22 01:05:32;;;;;;;10.15;5.70;;;14.80;99.90;;;;;;5134224;27;20211;-51
2022/05/22 01:08:00;;;;;;;9.27;6.32;;;14.80;99.90;;;;;;5134038;27;20240;-51
2022/05/22 01:10:39;;;;;;;8.20;5.88;;;14.80;99.90;;;;;;5133706;27;20167;-48
2022/05/22 01:13:06;;;;;;;12.82;6.90;;;14.70;99.90;;;;;;5131202;27;20172;-46
2022/05/22 01:15:32;;;;;;;12.20;6.85;;;14.80;99.90;;;;;;5126789;27;20194;-48
2022/05/22 01:17:57;;;;;;;10.50;6.93;;;14.80;99.90;;;;;;5117181;27;20172;-49
2022/05/22 01:20:23;;;;;;;15.02;7.78;;;14.80;99.90;;;;;;5095109;28;20172;-47
2022/05/22 01:22:49;;;;;;;10.55;6.20;;;14.80;99.90;;;;;;5115515;27;20524;-48
2022/05/22 01:25:14;;;;;;;15.07;6.88;;;14.70;99.90;;;;;;5124276;27;20672;-47
2022/05/22 01:27:48;;;;;;;15.48;7.28;;;14.70;99.90;;;;;;5112557;28;20169;-47
2022/05/22 01:30:20;;;;;;;14.68;6.80;;;14.70;99.90;;;;;;5127325;27;20818;-47
2022/05/22 01:32:48;;;;;;;9.80;6.03;;;14.70;99.90;;;;;;5133659;27;20167;-47
2022/05/22 01:35:17;;;;;;;7.50;6.20;;;14.70;99.90;;;;;;5133323;27;20196;-49
2022/05/22 01:37:44;;;;;;;12.65;6.72;;;14.70;99.90;;;;;;5133803;27;20167;-49
2022/05/22 01:40:11;;;;;;;9.40;6.40;;;14.70;99.90;;;;;;5133721;27;20171;-49
2022/05/22 01:42:37;;;;;;;9.25;5.78;;;14.60;99.90;;;;;;5117172;27;20169;-48
2022/05/22 01:45:04;;;;;;;11.50;6.13;;;14.60;99.90;;;;;;5112432;28;20283;-48
2022/05/22 01:47:35;;;;;;;11.38;6.47;;;14.50;99.90;;;;;;5112768;28;20169;-48
2022/05/22 01:50:01;;;;;;;9.73;5.82;;;14.50;99.90;;;;;;5112845;28;20169;-47
2022/05/22 01:52:26;;;;;;;13.23;6.05;;;14.50;99.90;;;;;;5112033;28;20161;-49
2022/05/22 01:54:52;;;;;;;13.57;6.10;;;14.60;99.90;;;;;;5094536;28;20542;-48
2022/05/22 01:57:18;;;;;;;7.60;5.68;;;14.60;99.90;;;;;;5112608;28;20164;-47
2022/05/22 01:59:43;;;;;;;6.63;5.32;;;14.50;99.90;;;;;;5112845;28;20180;-48
2022/05/22 02:02:09;;;;;;;10.65;5.60;;;14.40;99.90;;;;;;5112693;28;20221;-47
2022/05/22 02:04:34;;;;;;;8.68;5.40;;;14.30;99.90;;;;;;5112357;28;20224;-48
2022/05/22 02:09:44;;;;;;;11.35;6.13;;;14.30;99.90;;;;;;5128198;27;20216;-48
2022/05/22 02:12:10;;;;;;;9.85;4.38;;;14.30;99.90;;;;;;5132713;27;20176;-47
2022/05/22 02:14:35;;;;;;;10.68;5.60;;;14.20;99.90;;;;;;5132553;27;20176;-47
2022/05/22 02:17:01;;;;;;;8.93;5.53;;;14.10;99.90;;;;;;5125613;28;20173;-47
2022/05/22 02:19:26;;;;;;;10.05;6.03;;;14.00;99.90;;;;;;5128935;28;20164;-47
2022/05/22 02:21:52;;;;;;;10.38;5.75;;;14.10;99.90;;;;;;5132333;28;20168;-48
2022/05/22 02:24:17;;;;;;;10.60;5.93;;;14.00;99.90;;;;;;5131126;28;20180;-46
2022/05/22 02:26:43;;;;;;;7.72;5.90;;;14.00;99.90;;;;;;5113819;28;20204;-47
2022/05/22 02:29:10;;;;;;;7.53;5.70;;;14.00;99.90;;;;;;5114366;28;20532;-46
2022/05/22 02:31:35;;;;;;;9.43;6.55;;;14.10;99.90;;;;;;5132764;28;20172;-46
2022/05/22 02:34:01;;;;;;;15.18;8.82;;;14.10;99.90;;;;;;5130709;28;20579;-46
2022/05/22 02:36:27;;;;;;;9.38;6.88;;;14.10;99.90;;;;;;5130281;28;20176;-48
2022/05/22 02:38:53;;;;;;;22.80;11.40;;;14.10;99.90;;;;;;5126416;28;20176;-47
2022/05/22 02:41:20;;;;;;;11.70;6.78;;;14.10;99.90;;;;;;5093952;28;20168;-48
2022/05/22 02:43:46;;;;;;;12.70;6.93;;;14.00;99.90;;;;;;5112048;28;20635;-46
2022/05/22 02:46:14;;;;;;;9.25;6.50;;;14.10;99.90;;;;;;5112122;28;20295;-47
2022/05/22 02:48:39;;;;;;;9.18;5.97;;;14.00;99.90;;;;;;5125789;28;20176;-48
2022/05/22 02:51:06;;;;;;;6.97;5.57;;;14.00;99.90;;;;;;5130780;28;20201;-50
2022/05/22 02:53:33;;;;;;;7.18;5.78;;;14.00;99.90;;;;;;5132005;28;20203;-47
2022/05/22 02:56:10;;;;;;;7.65;5.80;;;14.00;99.90;;;;;;5115407;28;20168;-48
2022/05/22 02:58:35;;;;;;;9.32;6.13;;;13.80;99.90;;;;;;5130336;28;20168;-50
2022/05/22 03:01:01;;;;;;;9.73;5.90;;;13.80;99.90;;;;;;5119960;28;20169;-50
2022/05/22 03:03:27;;;;;;;9.18;5.57;;;13.70;99.90;;;;;;5113805;28;20538;-49
2022/05/22 03:08:36;;;;;;;8.35;5.38;;;13.80;99.90;;;;;;5115980;28;20187;-49
2022/05/22 03:11:03;;;;;;;7.07;5.70;;;13.80;99.90;;;;;;5120761;27;20172;-48
2022/05/22 03:13:28;;;;;;;9.85;6.95;;;13.80;99.90;;;;;;5136362;27;20164;-49
2022/05/22 03:15:54;;;;;;;9.80;5.78;;;13.70;99.90;;;;;;5135669;27;20229;-47
2022/05/22 03:18:19;;;;;;;9.75;5.53;;;13.80;99.90;;;;;;5129800;27;20179;-51
2022/05/22 03:20:46;;;;;;;8.18;5.53;;;13.80;99.90;;;;;;5127143;27;20258;-51
2022/05/22 03:23:13;;;;;;;10.73;6.13;;;13.80;99.90;;;;;;5135946;27;20172;-51
2022/05/22 03:25:39;;;;;;;9.40;5.70;;;13.80;99.90;;;;;;5127020;27;20200;-51
2022/05/22 03:28:04;;;;;;;11.60;5.85;;;13.90;99.90;;;;;;5127782;27;20615;-51
2022/05/22 03:30:30;;;;;;;7.55;5.65;;;13.80;99.90;;;;;;5135603;27;20179;-51
2022/05/22 03:32:55;;;;;;;11.63;5.80;;;13.80;99.90;;;;;;5134021;27;20184;-51
2022/05/22 03:35:21;;;;;;;10.00;6.53;;;13.70;99.90;;;;;;5120620;27;20259;-51
2022/05/22 03:37:46;;;;;;;13.13;5.63;;;13.60;99.90;;;;;;5124348;27;20530;-50
2022/05/22 03:40:13;;;;;;;8.98;5.63;;;13.60;99.90;;;;;;5135745;27;20167;-47
2022/05/22 03:42:39;;;;;;;11.18;6.15;;;13.40;99.90;;;;;;5133646;27;20190;-47
2022/05/22 03:45:05;;;;;;;9.95;6.15;;;13.40;99.90;;;;;;5135384;27;20559;-47
2022/05/22 03:47:31;;;;;;;10.43;5.57;;;13.30;99.90;;;;;;5132343;27;20254;-47
2022/05/22 03:49:56;;;;;;;11.52;6.38;;;13.20;99.90;;;;;;5116259;27;20272;-47
2022/05/22 03:52:22;;;;;;;9.68;5.78;;;13.10;99.90;;;;;;5115236;27;20719;-47
2022/05/22 03:54:47;;;;;;;9.10;6.55;;;13.10;99.90;;;;;;5117955;27;20551;-51
2022/05/22 03:57:13;;;;;;;9.23;6.88;;;13.20;99.90;;;;;;5135217;27;20168;-50
2022/05/22 03:59:40;;;;;;;12.65;7.53;;;13.30;99.90;;;;;;5118647;27;20255;-50
2022/05/22 04:02:06;;;;;;;12.98;7.50;;;13.20;99.90;;;;;;5115900;27;20160;-50
2022/05/22 04:04:32;;;;;;;8.52;6.70;;;13.20;99.90;;;;;;5115662;27;20265;-50
2022/05/22 04:06:58;;;;;;;8.63;6.95;;;13.40;99.90;;;;;;5133080;27;20650;-50
2022/05/22 04:09:27;;;;;;;12.27;7.13;;;13.40;99.90;;;;;;5128488;27;20160;-50
2022/05/22 04:11:52;;;;;;;10.05;6.93;;;13.30;99.90;;;;;;5114992;27;20173;-50
2022/05/22 04:14:19;;;;;;;11.07;7.28;;;13.40;99.90;;;;;;5122660;27;20167;-50
2022/05/22 04:16:44;;;;;;;9.65;7.68;;;13.40;99.90;;;;;;5135008;27;20195;-48
2022/05/22 04:19:10;;;;;;;8.50;6.75;;;13.50;99.90;;;;;;5130162;27;20627;-48
2022/05/22 04:21:36;;;;;;;12.75;6.90;;;13.60;99.90;;;;;;5114349;28;20516;-48
2022/05/22 04:26:46;;;;;;;9.18;6.85;;;13.70;99.90;;;;;;5130740;27;20218;-48
2022/05/22 04:29:12;;;;;;;12.15;7.72;;;13.80;99.90;;;;;;5124840;27;20251;-48
2022/05/22 04:31:37;;;;;;;11.95;7.80;;;13.90;99.90;;;;;;5114357;28;20646;-48
2022/05/22 04:34:03;;;;;;;11.35;7.40;;;14.00;99.90;;;;;;5116702;27;20176;-47
2022/05/22 04:36:29;;;;;;;13.43;7.43;;;14.00;99.90;;;;;;5128079;27;20167;-47
2022/05/22 04:38:55;;;;;;;16.60;8.27;;;14.00;99.90;;;;;;5115593;27;20516;-48
2022/05/22 04:41:21;;;;;;;12.27;7.80;;;14.20;99.90;;;;;;5114100;28;20577;-47
2022/05/22 04:43:46;;;;;;;11.48;7.53;;;14.10;99.90;;;;;;5115088;27;20734;-49
2022/05/22 04:46:12;;;;;;;13.60;7.93;;;14.20;99.90;;;;;;5113899;27;20279;-48
2022/05/22 04:48:38;;;;;;;11.07;6.53;;;14.30;99.90;;;;;;5117732;27;20171;-49
2022/05/22 04:51:04;;;;;;;11.23;7.00;;;14.30;99.90;;;;;;5096625;28;20180;-47
2022/05/22 04:53:29;;;;;;;10.93;7.32;;;14.30;99.90;;;;;;5113709;27;20165;-48
2022/05/22 04:55:56;;;;;;;11.43;8.23;;;14.30;99.90;;;;;;5113865;28;20192;-48
2022/05/22 04:58:22;;;;;;;14.57;9.40;;;14.40;99.90;;;;;;5134613;27;20619;-48
2022/05/22 05:00:47;;;;;;;13.52;8.68;;;14.50;99.90;;;;;;5129093;27;20163;-47
2022/05/22 05:03:13;;;;;;;13.60;9.38;;;14.60;99.90;;;;;;5117521;27;20193;-47
2022/05/22 05:05:39;;;;;;;11.20;7.53;;;14.80;99.90;;;;;;5125186;27;20215;-48
2022/05/22 05:08:05;;;;;;;9.38;6.80;;;14.80;99.90;;;;;;5120933;27;20168;-48
2022/05/22 05:10:30;;;;;;;8.43;6.85;;;14.70;99.90;;;;;;5118038;27;20176;-49
2022/05/22 05:12:56;;;;;;;14.38;7.75;;;14.70;99.90;;;;;;5115291;27;20616;-47
2022/05/22 05:15:24;;;;;;;13.77;7.80;;;14.80;99.90;;;;;;5134411;27;20604;-48
2022/05/22 05:17:49;;;;;;;11.15;6.75;;;14.90;99.90;;;;;;5134534;27;20266;-50
2022/05/22 05:20:18;;;;;;;13.70;9.50;;;14.90;99.90;;;;;;5130048;27;20663;-48
2022/05/22 05:22:44;;;;;;;17.95;10.60;;;15.10;99.90;;;;;;5118105;27;20251;-47
2022/05/22 05:25:12;;;;;;;8.00;5.40;;;15.20;99.90;;;;;;5103813;28;20203;-48
2022/05/22 05:27:37;;;;;;;10.43;6.25;;;15.20;99.90;;;;;;5117120;27;20685;-50
2022/05/22 05:30:04;;;;;;;18.23;11.35;;;15.30;99.90;;;;;;5113137;28;20165;-47
2022/05/22 05:32:30;;;;;;;14.07;7.07;;;15.20;99.90;;;;;;5116614;27;20176;-49
2022/05/22 05:35:00;;;;;;;10.00;7.05;;;14.90;99.90;;;;;;5126693;27;20179;-48
2022/05/22 05:37:26;;;;;;;26.80;15.18;;;15.00;99.90;;;;;;5120746;27;20558;-47
2022/05/22 05:39:52;;;;;;;23.17;13.23;;;15.10;99.90;;;;;;5128654;27;20566;-47
2022/05/22 05:42:19;;;;;;;12.57;7.43;;;15.00;99.90;;;;;;5124182;27;20178;-47
2022/05/22 05:44:45;;;;;;;26.58;13.30;;;15.10;99.90;;;;;;5133046;27;20160;-46
2022/05/22 05:47:11;;;;;;;13.43;7.95;;;15.10;99.90;;;;;;5131297;27;20168;-47
2022/05/22 05:49:38;;;;;;;10.13;6.20;;;15.10;99.90;;;;;;5114708;27;20172;-48
2022/05/22 05:52:04;;;;;;;18.65;10.43;;;15.30;99.90;;;;;;5130220;27;20168;-47
2022/05/22 05:54:30;;;;;;;16.38;8.48;;;15.30;99.90;;;;;;5132962;27;20259;-47
2022/05/22 05:56:56;;;;;;;20.27;10.23;;;15.40;99.90;;;;;;5132901;27;20207;-46
2022/05/22 05:59:21;;;;;;;8.90;6.38;;;15.40;99.90;;;;;;5133512;27;20168;-47
2022/05/22 06:01:47;;;;;;;14.07;6.20;;;15.60;99.90;;;;;;5119911;27;20627;-45
2022/05/22 06:04:12;;;;;;;13.88;8.38;;;15.70;99.90;;;;;;5124920;27;20223;-48
2022/05/22 06:06:38;;;;;;;13.50;7.10;;;15.70;99.90;;;;;;5132288;27;20204;-47
2022/05/22 06:09:04;;;;;;;16.20;7.75;;;15.80;99.90;;;;;;5125508;27;20169;-48
2022/05/22 06:11:29;;;;;;;12.23;6.28;;;15.90;99.90;;;;;;5101512;28;20168;-46
2022/05/22 06:13:55;;;;;;;10.05;6.30;;;16.00;99.90;;;;;;5112610;28;20168;-46
2022/05/22 06:16:20;;;;;;;13.00;5.50;;;16.10;99.90;;;;;;5112795;28;20200;-46
2022/05/22 06:18:46;;;;;;;13.45;5.80;;;16.20;99.90;;;;;;5125898;28;20198;-47
2022/05/22 06:21:14;;;;;;;7.82;5.47;;;16.10;99.90;;;;;;5131471;28;20535;-47
2022/05/22 06:23:40;;;;;;;10.75;6.05;;;16.30;99.90;;;;;;5132548;28;20176;-48
2022/05/22 06:26:07;;;;;;;10.35;5.63;;;16.40;99.90;;;;;;5121484;28;20207;-48
2022/05/22 06:28:33;;;;;;;10.20;5.50;;;16.40;99.90;;;;;;5126319;28;20164;-47
2022/05/22 06:30:58;;;;;;;11.15;7.22;;;16.40;99.90;;;;;;5131770;28;20176;-48
2022/05/22 06:33:24;;;;;;;9.07;4.88;;;16.60;99.90;;;;;;5112651;28;20161;-48
2022/05/22 06:35:49;;;;;;;8.43;5.00;;;16.70;99.90;;;;;;5113580;28;20639;-48
2022/05/22 06:41:06;;;;;;;7.45;5.07;;;16.90;99.90;;;;;;5117391;27;20229;-50
2022/05/22 06:43:31;;;;;;;15.57;7.65;;;16.90;99.90;;;;;;5133404;27;20203;-51
2022/05/22 06:45:57;;;;;;;7.20;5.43;;;16.90;99.90;;;;;;5116133;28;20240;-49
2022/05/22 06:48:22;;;;;;;10.35;5.78;;;17.10;99.90;;;;;;5126166;27;20631;-53
2022/05/22 06:50:47;;;;;;;6.90;5.03;;;16.90;99.90;;;;;;5134548;27;20176;-50
2022/05/22 06:53:13;;;;;;;11.38;5.43;;;17.00;99.90;;;;;;5117929;27;20168;-49
2022/05/22 06:55:40;;;;;;;12.02;5.60;;;17.10;99.90;;;;;;5136131;27;20202;-50
2022/05/22 06:58:06;;;;;;;11.48;5.88;;;17.20;99.90;;;;;;5115801;27;20168;-51
2022/05/22 07:00:32;;;;;;;8.30;5.82;;;17.40;99.90;;;;;;5126760;27;20181;-51
2022/05/22 07:02:57;;;;;;;11.60;5.50;;;17.60;99.90;;;;;;5115445;28;20544;-52
2022/05/22 07:05:23;;;;;;;7.47;5.80;;;17.60;99.90;;;;;;5116826;27;20212;-50
2022/05/22 07:07:48;;;;;;;9.00;5.25;;;17.60;99.90;;;;;;5116017;27;20171;-51
2022/05/22 07:10:15;;;;;;;8.48;5.25;;;17.60;99.90;;;;;;5116768;27;20177;-48
2022/05/22 07:12:41;;;;;;;8.00;5.53;;;17.60;99.90;;;;;;5132285;27;20245;-50
2022/05/22 07:15:07;;;;;;;14.23;5.97;;;17.70;99.90;;;;;;5119308;27;20197;-50
2022/05/22 07:17:34;;;;;;;10.15;5.70;;;17.90;99.90;;;;;;5117571;27;20168;-50
2022/05/22 07:19:59;;;;;;;7.55;5.60;;;18.10;99.90;;;;;;5118584;27;20222;-51
2022/05/22 07:22:25;;;;;;;10.27;6.00;;;18.10;99.90;;;;;;5116744;27;20537;-50
2022/05/22 07:24:52;;;;;;;9.32;5.53;;;18.40;99.90;;;;;;5125150;27;20175;-51
2022/05/22 07:27:18;;;;;;;9.65;5.72;;;18.60;99.90;;;;;;5129950;27;20176;-50
2022/05/22 07:29:44;;;;;;;8.40;5.25;;;18.50;99.90;;;;;;5114941;28;20183;-51
2022/05/22 07:32:10;;;;;;;11.75;5.63;;;18.70;99.90;;;;;;5121707;27;20254;-49
2022/05/22 07:34:36;;;;;;;11.23;5.25;;;18.60;99.90;;;;;;5127721;27;20164;-50
2022/05/22 07:37:04;;;;;;;7.30;4.65;;;18.80;99.90;;;;;;5116594;27;20179;-48
2022/05/22 07:39:30;;;;;;;6.57;5.25;;;19.00;99.90;;;;;;5116403;28;20184;-51
2022/05/22 07:41:56;;;;;;;10.57;5.03;;;19.00;99.90;;;;;;5115507;27;20543;-49
2022/05/22 07:44:22;;;;;;;7.32;4.78;;;19.20;99.90;;;;;;5124422;27;20164;-49
2022/05/22 07:46:48;;;;;;;7.05;4.82;;;19.10;99.90;;;;;;5135505;27;20204;-50
2022/05/22 07:52:06;;;;;;;9.40;4.90;;;19.10;99.90;;;;;;5116376;28;20538;-48
2022/05/22 07:54:34;;;;;;;6.75;5.05;;;19.50;99.90;;;;;;5134342;27;20251;-50
2022/05/22 07:56:59;;;;;;;8.88;5.68;;;19.50;99.90;;;;;;5135515;27;20176;-49
2022/05/22 07:59:25;;;;;;;13.68;5.65;;;19.50;99.90;;;;;;5135853;27;20571;-49
2022/05/22 08:01:50;;;;;;;8.73;5.63;;;19.60;99.90;;;;;;5134452;27;20175;-50
2022/05/22 08:04:16;;;;;;;11.57;5.00;;;19.80;99.90;;;;;;5133698;27;20211;-48
2022/05/22 08:06:41;;;;;;;11.05;5.75;;;19.90;99.90;;;;;;5126433;27;20323;-50
2022/05/22 08:09:07;;;;;;;9.95;5.30;;;19.90;99.90;;;;;;5115129;28;20184;-49
2022/05/22 08:11:32;;;;;;;12.50;5.97;;;20.00;99.90;;;;;;5121446;27;20168;-49
2022/05/22 08:13:58;;;;;;;9.20;5.63;;;20.00;99.90;;;;;;5135080;27;20242;-49
2022/05/22 08:16:24;;;;;;;9.40;5.93;;;20.20;99.90;;;;;;5114867;27;20199;-50
2022/05/22 08:18:49;;;;;;;9.30;6.53;;;20.20;99.90;;;;;;5119068;27;20203;-48
2022/05/22 08:21:15;;;;;;;13.73;6.28;;;20.10;99.90;;;;;;5134766;27;20323;-49
2022/05/22 08:23:40;;;;;;;10.80;5.95;;;20.10;99.90;;;;;;5134131;27;20175;-48
2022/05/22 08:26:06;;;;;;;11.23;6.55;;;20.30;99.90;;;;;;5126328;27;20695;-46
2022/05/22 08:28:31;;;;;;;9.88;5.72;;;20.40;99.90;;;;;;5124557;27;20239;-48
2022/05/22 08:30:57;;;;;;;13.55;6.47;;;20.40;99.90;;;;;;5117249;27;20180;-49
2022/05/22 08:33:23;;;;;;;11.57;5.97;;;20.40;99.90;;;;;;5114482;28;20161;-49
2022/05/22 08:35:49;;;;;;;8.93;5.82;;;20.50;99.90;;;;;;5131881;27;20180;-50
2022/05/22 08:38:14;;;;;;;12.82;5.80;;;20.40;99.90;;;;;;5132966;27;20164;-49
2022/05/22 08:40:46;;;;;;;9.98;5.75;;;20.60;99.90;;;;;;5125135;27;20180;-50
2022/05/22 08:43:15;;;;;;;9.38;5.32;;;20.60;99.90;;;;;;5115135;27;20165;-50
2022/05/22 08:45:47;;;;;;;9.70;5.60;;;20.70;99.90;;;;;;5118353;27;20192;-49
2022/05/22 08:48:22;;;;;;;10.10;5.78;;;20.70;99.90;;;;;;5122244;27;20192;-49
2022/05/22 08:50:49;;;;;;;10.93;5.82;;;20.80;99.90;;;;;;5133605;27;20183;-48
2022/05/22 08:53:22;;;;;;;13.05;6.18;;;21.00;99.90;;;;;;5130237;27;20555;-50
2022/05/22 08:59:03;;;;;;;11.35;5.30;;;21.20;99.90;;;;;;5117151;27;20664;-50
2022/05/22 09:02:02;;;;;;;10.13;5.97;;;21.10;99.90;;;;;;5081770;27;20191;-49
2022/05/22 09:04:33;;;;;;;12.38;5.55;;;21.00;99.90;;;;;;5120152;27;20304;-48
2022/05/22 09:07:14;;;;;;;14.27;6.20;;;21.00;99.90;;;;;;5113595;28;20208;-49
2022/05/22 09:09:42;;;;;;;15.43;6.18;;;21.20;99.90;;;;;;5113472;28;20529;-48
2022/05/22 09:12:26;;;;;;;14.52;6.97;;;21.10;99.90;;;;;;5113344;28;20535;-48
2022/05/22 09:15:07;;;;;;;19.55;8.77;;;21.30;99.90;;;;;;5095218;28;20203;-49
2022/05/22 09:17:43;;;;;;;22.13;12.68;;;21.20;99.90;;;;;;5113616;28;20176;-48
2022/05/22 09:20:29;;;;;;;8.70;5.57;;;21.60;99.90;;;;;;5113392;28;20247;-49
2022/05/22 09:23:16;;;;;;;11.15;5.93;;;21.60;99.90;;;;;;5113668;28;20281;-49
2022/05/22 09:26:08;;;;;;;12.23;5.78;;;21.70;99.90;;;;;;5113224;28;20196;-50
2022/05/22 09:28:55;;;;;;;12.73;5.40;;;21.90;99.90;;;;;;5113454;28;20169;-48
2022/05/22 09:31:49;;;;;;;6.70;4.93;;;21.80;99.90;;;;;;5113481;28;20160;-47
2022/05/22 09:34:36;;;;;;;11.43;5.68;;;21.90;99.90;;;;;;5067746;28;20922;-48
2022/05/22 09:37:26;;;;;;;12.05;5.40;;;21.90;99.90;;;;;;5112979;28;20659;-50
2022/05/22 09:40:24;;;;;;;12.25;5.15;;;22.10;99.90;;;;;;5113319;28;20173;-49
2022/05/22 09:43:17;;;;;;;10.93;5.18;;;22.00;99.90;;;;;;5112944;28;20176;-49
2022/05/22 09:46:04;;;;;;;10.88;4.45;;;22.10;99.90;;;;;;5112818;28;20193;-48
2022/05/22 09:48:46;;;;;;;7.72;4.88;;;22.10;99.90;;;;;;5112654;28;20504;-48
2022/05/22 09:51:36;;;;;;;10.82;5.82;;;22.10;99.90;;;;;;5113007;28;20172;-49
2022/05/22 09:54:23;;;;;;;7.18;4.28;;;22.00;99.90;;;;;;5112742;28;20173;-50
2022/05/22 09:57:09;;;;;;;8.35;4.60;;;21.90;99.90;;;;;;5112625;28;20172;-49
2022/05/22 10:00:07;;;;;;;8.73;5.07;;;22.00;99.90;;;;;;5112902;28;20179;-48
2022/05/22 10:02:55;;;;;;;7.60;4.10;;;21.90;99.90;;;;;;5112937;28;20164;-49
2022/05/22 10:05:59;;;;;;;7.22;3.78;;;22.00;99.90;;;;;;5112362;28;20254;-47
2022/05/22 10:08:42;;;;;;;9.32;3.95;;;22.30;99.90;;;;;;5108295;28;20263;-50
2022/05/22 10:11:14;;;;;;;7.63;3.78;;;22.40;99.90;;;;;;5112500;28;20276;-51
2022/05/22 10:13:59;;;;;;;5.82;3.55;;;22.50;99.90;;;;;;5112134;28;20168;-50
2022/05/22 10:16:53;;;;;;;11.50;4.07;;;22.60;99.90;;;;;;5112980;28;20173;-48
2022/05/22 10:19:58;;;;;;;8.60;3.90;;;22.60;99.90;;;;;;5075650;28;20176;-50
2022/05/22 10:22:55;;;;;;;7.80;3.70;;;22.90;99.90;;;;;;5010435;28;20251;-52
2022/05/22 10:25:33;;;;;;;5.40;3.15;;;23.20;99.90;;;;;;5112383;28;20193;-51
2022/05/22 10:28:22;;;;;;;9.68;3.88;;;22.80;99.90;;;;;;5112538;28;20160;-50
2022/05/22 10:30:57;;;;;;;8.13;4.22;;;22.90;99.90;;;;;;5112704;28;20192;-49
2022/05/22 10:33:40;;;;;;;6.88;3.28;;;23.00;99.90;;;;;;5112924;28;20207;-50
2022/05/22 10:36:13;;;;;;;4.55;3.10;;;23.00;99.90;;;;;;5112365;28;20639;-51
2022/05/22 10:38:48;;;;;;;7.95;4.55;;;23.20;99.90;;;;;;5112272;28;20300;-52
2022/05/22 10:44:13;;;;;;;7.45;3.88;;;23.30;99.90;;;;;;5112608;28;20183;-51
2022/05/22 10:46:53;;;;;;;9.75;5.18;;;23.00;99.90;;;;;;5112389;28;20200;-52
2022/05/22 10:49:23;;;;;;;8.43;4.35;;;23.20;99.90;;;;;;5112525;28;20502;-52
2022/05/22 10:52:02;;;;;;;7.03;4.03;;;23.30;99.90;;;;;;5112039;28;20172;-52
2022/05/22 10:54:34;;;;;;;9.32;4.10;;;23.30;99.90;;;;;;5112129;28;20217;-52
2022/05/22 10:57:22;;;;;;;7.88;3.65;;;23.60;99.90;;;;;;5112102;28;20251;-51
2022/05/22 10:59:48;;;;;;;6.32;3.35;;;23.60;99.90;;;;;;5112174;28;20164;-52
2022/05/22 11:02:33;;;;;;;5.45;2.72;;;23.70;99.90;;;;;;5112280;28;20184;-51
2022/05/22 11:04:59;;;;;;;7.35;2.97;;;23.70;94.70;;;;;;5111565;28;20217;-51
2022/05/22 11:07:31;;;;;;;7.28;3.28;;;24.00;98.10;;;;;;5112393;28;20218;-50
2022/05/22 11:10:23;;;;;;;5.80;2.83;;;23.90;98.20;;;;;;5111993;28;20165;-51
2022/05/22 11:13:12;;;;;;;7.97;3.42;;;23.90;97.60;;;;;;5111973;28;20225;-52
2022/05/22 11:15:42;;;;;;;10.77;3.80;;;23.70;97.60;;;;;;5111981;28;20179;-51
2022/05/22 11:18:18;;;;;;;5.47;2.83;;;23.70;98.40;;;;;;5112004;28;20569;-51
2022/05/22 11:20:57;;;;;;;5.93;2.88;;;23.70;98.70;;;;;;5111985;28;20229;-51
2022/05/22 11:23:41;;;;;;;8.13;3.30;;;23.50;97.50;;;;;;5112413;28;20165;-51
2022/05/22 11:26:37;;;;;;;6.75;3.40;;;23.80;99.90;;;;;;5115167;28;20204;-50
2022/05/22 11:29:13;;;;;;;7.90;3.70;;;24.00;99.70;;;;;;5115487;28;20171;-51
2022/05/22 11:32:04;;;;;;;8.18;3.40;;;24.30;97.60;;;;;;5115478;28;20168;-52
2022/05/22 11:34:51;;;;;;;9.18;3.72;;;24.00;97.40;;;;;;5115541;28;20164;-51
2022/05/22 11:37:44;;;;;;;6.32;3.85;;;23.70;96.50;;;;;;5115618;28;20173;-51
2022/05/22 11:40:32;;;;;;;9.88;3.85;;;23.90;97.00;;;;;;5115379;28;20168;-51
2022/05/22 11:43:27;;;;;;;5.88;3.58;;;24.10;96.60;;;;;;5115506;28;20176;-51
2022/05/22 11:46:16;;;;;;;6.80;2.97;;;24.30;96.80;;;;;;5097323;28;20209;-52
2022/05/22 11:49:03;;;;;;;9.35;4.30;;;24.50;96.50;;;;;;5115096;28;20167;-52
2022/05/22 11:51:57;;;;;;;7.28;3.20;;;24.30;96.40;;;;;;5115086;28;20160;-50
2022/05/22 11:55:00;;;;;;;7.00;3.67;;;24.70;95.40;;;;;;5115466;28;20169;-50
2022/05/22 11:57:37;;;;;;;6.97;3.40;;;24.90;94.90;;;;;;5114112;28;20259;-50
2022/05/22 12:00:19;;;;;;;7.25;3.63;;;24.90;95.50;;;;;;5115022;28;20217;-50
2022/05/22 12:03:03;;;;;;;8.93;4.07;;;25.00;94.60;;;;;;5114697;28;20265;-50
2022/05/22 12:05:31;;;;;;;7.93;3.72;;;24.70;93.00;;;;;;5114596;28;20215;-50
2022/05/22 12:08:05;;;;;;;6.80;3.20;;;25.00;92.70;;;;;;5115050;28;20168;-50
2022/05/22 12:10:34;;;;;;;7.68;3.13;;;24.90;92.30;;;;;;5114792;28;20175;-49
2022/05/22 12:13:11;;;;;;;5.15;2.53;;;25.30;95.30;;;;;;5114738;28;20152;-50
2022/05/22 12:15:46;;;;;;;9.25;3.10;;;25.20;93.50;;;;;;5114754;28;20195;-49
2022/05/22 12:18:36;;;;;;;6.82;3.85;;;25.00;91.20;;;;;;5114615;28;20293;-50
2022/05/22 12:21:11;;;;;;;7.90;3.25;;;24.70;90.90;;;;;;5114546;28;20164;-50
2022/05/22 12:23:41;;;;;;;5.20;2.72;;;24.90;91.70;;;;;;5114571;28;20156;-49
2022/05/22 12:26:08;;;;;;;9.63;3.70;;;25.10;91.90;;;;;;5114450;28;20558;-50
2022/05/22 12:28:48;;;;;;;7.18;3.92;;;24.90;91.60;;;;;;5114935;28;20172;-48
2022/05/22 12:31:47;;;;;;;10.75;5.20;;;25.10;91.80;;;;;;5114359;28;20168;-50
2022/05/22 12:34:19;;;;;;;8.60;3.60;;;25.10;92.10;;;;;;5092502;28;20187;-50
2022/05/22 12:36:52;;;;;;;6.18;3.78;;;24.80;91.70;;;;;;5113956;28;20213;-49
2022/05/22 12:39:19;;;;;;;7.28;3.58;;;24.90;92.60;;;;;;5114323;28;20199;-50
2022/05/22 12:42:03;;;;;;;5.55;3.10;;;24.90;92.30;;;;;;5114135;28;20171;-50
2022/05/22 12:44:29;;;;;;;6.68;3.22;;;25.00;92.50;;;;;;5114096;28;20569;-50
2022/05/22 12:46:57;;;;;;;9.10;3.50;;;25.30;91.30;;;;;;5114557;28;20261;-49
2022/05/22 12:49:30;;;;;;;8.40;3.38;;;25.20;90.90;;;;;;5114223;28;20164;-50
2022/05/22 12:52:15;;;;;;;10.70;3.58;;;25.60;91.20;;;;;;5113986;28;20620;-49
2022/05/22 12:54:41;;;;;;;9.43;5.75;;;25.80;91.20;;;;;;5113891;28;20179;-49
2022/05/22 12:57:10;;;;;;;8.30;4.38;;;25.50;91.60;;;;;;5113907;28;20160;-49
2022/05/22 12:59:35;;;;;;;8.80;3.97;;;25.50;90.90;;;;;;5113778;28;20221;-49
2022/05/22 13:02:02;;;;;;;6.10;4.07;;;25.50;90.80;;;;;;5113985;28;20172;-50
2022/05/22 13:04:39;;;;;;;8.45;7.10;;;25.20;90.80;;;;;;5113464;28;20582;-51
2022/05/22 13:07:11;;;;;;;8.27;3.92;;;25.30;91.70;;;;;;5113862;28;20208;-51
2022/05/22 13:09:44;;;;;;;8.45;4.20;;;25.20;90.60;;;;;;5113689;28;20195;-51
2022/05/22 13:12:12;;;;;;;9.38;3.78;;;25.10;90.60;;;;;;5113853;28;20198;-51
2022/05/22 13:15:15;;;;;;;8.80;4.30;;;25.30;91.50;;;;;;5113501;28;20170;-50
2022/05/22 13:18:02;;;;;;;8.75;4.50;;;25.20;90.70;;;;;;5061293;28;20256;-50
2022/05/22 13:20:36;;;;;;;7.25;3.85;;;25.00;90.50;;;;;;5113441;28;20160;-50
2022/05/22 13:23:08;;;;;;;9.27;4.50;;;25.20;91.80;;;;;;5113317;28;20187;-51
2022/05/22 13:25:42;;;;;;;8.05;3.90;;;25.20;91.70;;;;;;5113258;28;20242;-49